Time;durP1;ratioP1;P1;durP2;ratioP2;P2;SDS_P1;SDS_P2;PMS_P1;PMS_P2;Temp;Humidity;BMP_temperature;BMP_pressure;BME280_temperature;BME280_humidity;BME280_pressure;Samples;Min_cycle;Max_cycle;Signal;HPM_P1;HPM_P2
2024/02/28 00:00:23;;;;;;;21.60;7.78;;;;;;;7.42;86.20;100159.84;5052999;28;20033;-38
2024/02/28 00:02:48;;;;;;;23.10;7.72;;;;;;;7.56;86.17;100165.41;5052874;28;20039;-40
2024/02/28 00:05:14;;;;;;;14.63;7.10;;;;;;;7.49;86.68;100167.09;5053159;28;20105;-40
2024/02/28 00:07:39;;;;;;;22.20;7.80;;;;;;;7.71;85.47;100173.41;5053183;28;20381;-40
2024/02/28 00:10:05;;;;;;;19.98;7.63;;;;;;;7.70;85.49;100179.72;5052957;28;20064;-38
2024/02/28 00:12:30;;;;;;;19.27;7.43;;;;;;;7.61;85.12;100149.81;5053058;28;20028;-38
2024/02/28 00:14:56;;;;;;;19.02;7.45;;;;;;;7.65;85.64;100185.53;5052811;28;20118;-40
2024/02/28 00:17:21;;;;;;;20.70;7.05;;;;;;;7.34;86.38;100154.56;5053513;28;20036;-37
2024/02/28 00:19:46;;;;;;;20.73;7.28;;;;;;;7.55;86.35;100180.44;5053281;28;20067;-40
2024/02/28 00:22:12;;;;;;;18.33;7.30;;;;;;;7.74;85.49;100181.84;5043655;28;20113;-39
2024/02/28 00:24:37;;;;;;;21.67;7.30;;;;;;;7.79;85.51;100187.47;5032894;28;20061;-39
2024/02/28 00:27:03;;;;;;;16.60;7.13;;;;;;;7.69;85.07;100184.22;5033131;28;20134;-40
2024/02/28 00:29:28;;;;;;;20.75;7.72;;;;;;;7.70;85.54;100191.16;5032841;28;20041;-40
2024/02/28 00:31:54;;;;;;;18.55;6.95;;;;;;;7.61;85.81;100189.53;5032679;28;20036;-41
2024/02/28 00:34:19;;;;;;;19.17;7.47;;;;;;;7.45;86.13;100185.16;5032792;28;20036;-38
2024/02/28 00:36:44;;;;;;;17.30;6.50;;;;;;;7.66;85.75;100189.03;5032156;28;20029;-39
2024/02/28 00:39:10;;;;;;;20.30;6.90;;;;;;;7.66;84.76;100199.63;5032675;28;20035;-39
2024/02/28 00:41:36;;;;;;;16.98;7.97;;;;;;;7.36;86.68;100194.13;5032536;28;20454;-37
2024/02/28 00:44:02;;;;;;;19.98;7.68;;;;;;;7.41;86.57;100194.44;5032453;28;20032;-39
2024/02/28 00:46:28;;;;;;;20.75;7.95;;;;;;;7.53;85.81;100192.22;5032557;28;20132;-39
2024/02/28 00:48:53;;;;;;;25.48;8.23;;;;;;;7.50;85.87;100193.41;5032089;28;20483;-39
2024/02/28 00:51:18;;;;;;;19.10;8.60;;;;;;;7.57;85.97;100188.22;5032324;28;20021;-38
2024/02/28 00:53:44;;;;;;;22.25;8.07;;;;;;;7.60;85.11;100201.13;5032117;28;20080;-39
2024/02/28 00:56:09;;;;;;;17.52;8.30;;;;;;;7.73;85.64;100201.41;5032218;28;20025;-38
2024/02/28 00:58:34;;;;;;;26.35;8.85;;;;;;;7.69;84.71;100200.09;5031990;28;20103;-39
2024/02/28 01:01:00;;;;;;;20.15;7.82;;;;;;;7.51;85.72;100195.03;5032391;28;20029;-40
2024/02/28 01:03:25;;;;;;;23.95;8.32;;;;;;;7.72;84.28;100198.94;5032256;28;20389;-38
2024/02/28 01:05:51;;;;;;;17.23;7.70;;;;;;;7.63;85.22;100206.06;5032151;28;20021;-39
2024/02/28 01:08:19;;;;;;;21.48;9.25;;;;;;;7.69;84.88;100196.59;5032579;28;20056;-40
2024/02/28 01:10:45;;;;;;;19.48;7.80;;;;;;;7.67;85.19;100194.13;5033001;28;20025;-38
2024/02/28 01:13:11;;;;;;;17.95;7.63;;;;;;;7.67;85.23;100196.78;5032365;28;20185;-39
2024/02/28 01:15:37;;;;;;;24.45;8.30;;;;;;;7.56;85.25;100194.53;5032041;28;20087;-40
2024/02/28 01:18:02;;;;;;;16.00;7.38;;;;;;;7.31;86.29;100199.94;5032268;28;20548;-40
2024/02/28 01:20:27;;;;;;;22.00;7.60;;;;;;;7.62;85.10;100205.25;5032369;28;20028;-39
2024/02/28 01:22:53;;;;;;;24.83;8.05;;;;;;;7.64;84.93;100208.56;5032779;28;20029;-39
2024/02/28 01:25:18;;;;;;;22.48;7.50;;;;;;;7.51;85.27;100196.88;5032230;28;20041;-39
2024/02/28 01:27:44;;;;;;;23.92;7.82;;;;;;;7.51;85.68;100196.88;5032405;28;20037;-39
2024/02/28 01:30:10;;;;;;;17.90;7.20;;;;;;;7.27;86.11;100190.66;5032651;28;20393;-40
2024/02/28 01:32:35;;;;;;;20.00;7.43;;;;;;;7.31;86.08;100191.16;5032321;28;20033;-39
2024/02/28 01:35:03;;;;;;;17.33;7.38;;;;;;;7.48;84.84;100183.97;5032820;28;20108;-40
2024/02/28 01:37:28;;;;;;;16.60;7.30;;;;;;;7.44;85.04;100192.28;5032335;28;20021;-26
2024/02/28 01:39:53;;;;;;;21.15;7.65;;;;;;;7.21;85.96;100199.28;5032184;28;20025;-26
2024/02/28 01:42:19;;;;;;;17.35;7.30;;;;;;;7.03;86.73;100205.63;5032161;28;20108;-26
2024/02/28 01:44:47;;;;;;;18.52;7.68;;;;;;;7.09;87.16;100211.25;5032155;28;20039;-26
2024/02/28 01:47:13;;;;;;;20.65;7.38;;;;;;;7.02;87.63;100216.38;5032132;28;20060;-26
2024/02/28 01:49:40;;;;;;;19.52;7.97;;;;;;;7.05;87.12;100208.94;5031435;28;20029;-26
2024/02/28 01:52:06;;;;;;;20.77;7.90;;;;;;;7.09;87.20;100216.53;5032136;28;20030;-26
2024/02/28 01:54:34;;;;;;;25.50;8.82;;;;;;;7.11;86.68;100207.44;5031928;28;20496;-26
2024/02/28 01:57:00;;;;;;;18.23;8.07;;;;;;;7.04;87.69;100215.22;5031700;28;20037;-26
2024/02/28 01:59:26;;;;;;;22.40;8.20;;;;;;;7.31;85.90;100212.31;5032056;28;20029;-26
2024/02/28 02:01:51;;;;;;;17.42;7.40;;;;;;;7.30;85.49;100210.69;5044686;28;20425;-26
2024/02/28 02:04:17;;;;;;;20.77;8.40;;;;;;;7.13;85.54;100215.22;5031495;28;20032;-26
2024/02/28 02:06:45;;;;;;;21.83;8.02;;;;;;;7.10;86.07;100215.53;5031752;28;20033;-26
2024/02/28 02:09:11;;;;;;;19.98;8.10;;;;;;;6.89;87.13;100213.44;5031603;28;20067;-27
2024/02/28 02:11:37;;;;;;;19.88;7.53;;;;;;;6.97;86.84;100224.84;5031463;28;20033;-26
2024/02/28 02:14:02;;;;;;;21.55;7.90;;;;;;;7.03;86.24;100226.81;5031293;28;20021;-27
2024/02/28 02:16:27;;;;;;;24.73;8.23;;;;;;;7.00;86.85;100223.66;5030957;28;20491;-26
2024/02/28 02:18:53;;;;;;;19.23;8.25;;;;;;;6.81;87.69;100223.00;5030309;28;20034;-26
2024/02/28 02:21:22;;;;;;;22.38;8.40;;;;;;;6.78;87.88;100235.78;5030095;28;20021;-26
2024/02/28 02:23:48;;;;;;;24.70;8.00;;;;;;;6.87;86.93;100240.03;5048216;28;20071;-26
2024/02/28 02:26:13;;;;;;;21.67;7.85;;;;;;;6.99;86.73;100243.19;5049605;28;20502;-26
2024/02/28 02:28:38;;;;;;;24.10;8.40;;;;;;;6.99;86.85;100240.56;5049892;28;20057;-26
2024/02/28 02:31:04;;;;;;;21.33;7.30;;;;;;;6.88;86.80;100246.19;5049981;28;20035;-26
2024/02/28 02:33:29;;;;;;;21.48;8.45;;;;;;;6.79;86.64;100219.72;5050970;28;20029;-25
2024/02/28 02:35:55;;;;;;;15.45;7.18;;;;;;;6.77;88.07;100252.63;5051057;28;20033;-26
2024/02/28 02:38:20;;;;;;;24.67;7.82;;;;;;;6.88;87.42;100259.41;5050714;28;20109;-26
2024/02/28 02:40:49;;;;;;;19.02;7.28;;;;;;;6.95;87.06;100265.66;5050788;28;20116;-30
2024/02/28 02:43:15;;;;;;;20.35;7.38;;;;;;;7.04;85.80;100249.63;5050612;28;20021;-26
2024/02/28 02:45:40;;;;;;;19.35;7.72;;;;;;;7.04;86.76;100260.22;5050422;28;20070;-26
2024/02/28 02:48:06;;;;;;;19.77;6.97;;;;;;;6.97;86.10;100269.81;5050933;28;20116;-26
2024/02/28 02:50:31;;;;;;;22.15;7.65;;;;;;;6.95;86.13;100265.66;5050015;28;20025;-26
2024/02/28 02:52:56;;;;;;;20.50;8.07;;;;;;;7.17;85.29;100266.81;5051070;28;20073;-26
2024/02/28 02:55:22;;;;;;;30.58;8.55;;;;;;;7.25;84.79;100266.78;5050692;28;20055;-27
2024/02/28 02:57:47;;;;;;;19.85;7.20;;;;;;;7.42;83.51;100272.88;5051091;28;20031;-26
2024/02/28 03:00:13;;;;;;;16.92;6.93;;;;;;;7.33;83.45;100264.13;5035511;28;20427;-26
2024/02/28 03:02:39;;;;;;;18.77;7.57;;;;;;;6.92;85.64;100261.53;5030274;28;20498;-26
2024/02/28 03:05:05;;;;;;;22.00;8.20;;;;;;;7.10;85.55;100261.38;5030819;28;20137;-26
2024/02/28 03:07:32;;;;;;;23.40;7.60;;;;;;;7.09;85.05;100272.13;5030598;28;20021;-27
2024/02/28 03:09:57;;;;;;;17.85;7.18;;;;;;;7.08;85.57;100268.63;5030560;28;20107;-26
2024/02/28 03:12:23;;;;;;;19.25;7.45;;;;;;;6.94;86.23;100264.03;5030859;28;20088;-25
2024/02/28 03:14:48;;;;;;;18.90;7.57;;;;;;;6.92;86.13;100266.03;5030568;28;20053;-26
2024/02/28 03:17:15;;;;;;;16.98;7.60;;;;;;;7.01;85.67;100265.03;5030879;28;20041;-26
2024/02/28 03:19:41;;;;;;;17.35;7.15;;;;;;;6.98;85.79;100271.47;5030885;28;20025;-26
2024/02/28 03:22:06;;;;;;;17.40;7.07;;;;;;;6.82;86.83;100267.00;5038867;28;20027;-25
2024/02/28 03:24:34;;;;;;;18.90;7.50;;;;;;;6.92;86.63;100274.78;5050205;28;20021;-26
2024/02/28 03:27:00;;;;;;;23.00;7.80;;;;;;;7.09;85.88;100272.13;5050652;28;20038;-26
2024/02/28 03:29:25;;;;;;;26.38;7.97;;;;;;;6.93;86.36;100270.31;5050630;28;20549;-26
2024/02/28 03:31:50;;;;;;;19.02;7.47;;;;;;;7.05;86.51;100271.63;5050622;28;20024;-26
2024/02/28 03:34:16;;;;;;;19.08;7.57;;;;;;;6.81;86.71;100268.00;5050187;28;20208;-26
2024/02/28 03:36:41;;;;;;;21.70;8.20;;;;;;;6.83;87.23;100276.63;5050508;28;20025;-26
2024/02/28 03:39:06;;;;;;;23.63;9.20;;;;;;;6.81;88.06;100277.75;5050331;28;20374;-25
2024/02/28 03:41:32;;;;;;;22.63;9.10;;;;;;;6.92;87.53;100271.31;5033241;28;20037;-26
2024/02/28 03:43:57;;;;;;;20.23;8.35;;;;;;;6.93;87.38;100263.22;5030310;28;20049;-25
2024/02/28 03:46:22;;;;;;;22.27;8.98;;;;;;;6.69;88.33;100266.69;5029955;28;20025;-26
2024/02/28 03:48:48;;;;;;;19.80;8.52;;;;;;;6.74;87.80;100271.47;5030542;28;20026;-26
2024/02/28 03:51:13;;;;;;;17.92;8.15;;;;;;;6.91;87.68;100272.28;5030074;28;20052;-26
2024/02/28 03:53:40;;;;;;;25.90;9.85;;;;;;;6.68;88.36;100269.50;5030235;28;20477;-26
2024/02/28 03:56:06;;;;;;;23.05;8.25;;;;;;;6.62;88.98;100271.78;5030362;28;20087;-25
2024/02/28 03:58:31;;;;;;;19.85;8.55;;;;;;;6.70;88.47;100265.72;5030443;28;20037;-26
2024/02/28 04:00:56;;;;;;;20.67;8.77;;;;;;;6.75;88.39;100271.31;5029889;28;20021;-40
2024/02/28 04:03:22;;;;;;;17.55;7.90;;;;;;;6.93;86.76;100265.84;5030072;28;20138;-40
2024/02/28 04:05:47;;;;;;;29.45;8.70;;;;;;;6.97;86.93;100279.59;5030326;28;20480;-39
2024/02/28 04:08:13;;;;;;;18.33;8.00;;;;;;;7.08;86.83;100287.16;5030443;28;20045;-41
2024/02/28 04:10:38;;;;;;;24.67;8.50;;;;;;;6.92;87.04;100282.72;5030328;28;20104;-37
2024/02/28 04:13:04;;;;;;;32.10;9.10;;;;;;;6.65;88.63;100291.81;5032229;28;20468;-41
2024/02/28 04:15:30;;;;;;;21.23;8.25;;;;;;;6.71;88.31;100290.34;5040112;28;20016;-37
2024/02/28 04:17:55;;;;;;;25.02;8.15;;;;;;;6.74;88.26;100287.34;5033698;28;20470;-40
2024/02/28 04:20:21;;;;;;;22.83;8.35;;;;;;;6.38;89.07;100285.03;5033965;28;20026;-40
2024/02/28 04:22:46;;;;;;;23.75;8.68;;;;;;;6.45;89.56;100293.94;5033779;28;20454;-40
2024/02/28 04:25:12;;;;;;;17.48;8.27;;;;;;;6.59;88.70;100289.84;5033379;28;20494;-39
2024/02/28 04:27:38;;;;;;;16.73;7.80;;;;;;;6.89;87.31;100293.63;5034084;28;20030;-39
2024/02/28 04:30:05;;;;;;;22.08;8.30;;;;;;;6.74;87.33;100289.97;5039820;28;20078;-40
2024/02/28 04:32:30;;;;;;;20.67;9.48;;;;;;;7.02;86.24;100287.81;5053628;28;20025;-40
2024/02/28 04:34:55;;;;;;;26.25;10.38;;;;;;;6.53;87.09;100288.66;5053672;28;20395;-39
2024/02/28 04:37:21;;;;;;;24.25;9.88;;;;;;;6.39;88.66;100281.38;5053464;28;20032;-37
2024/02/28 04:39:46;;;;;;;26.08;9.27;;;;;;;6.75;87.95;100278.44;5053238;28;20028;-40
2024/02/28 04:42:12;;;;;;;27.30;9.27;;;;;;;6.68;86.68;100280.06;5052833;28;20024;-39
2024/02/28 04:44:38;;;;;;;29.00;11.00;;;;;;;6.88;86.30;100289.34;5053327;28;20021;-40
2024/02/28 04:47:04;;;;;;;33.50;12.00;;;;;;;7.08;90.57;100291.63;5053036;28;20098;-37
2024/02/28 04:49:29;;;;;;;26.67;12.02;;;;;;;6.67;89.00;100283.72;5052889;28;20071;-39
2024/02/28 04:51:55;;;;;;;30.98;12.23;;;;;;;6.67;89.64;100299.59;5053265;28;20025;-40
2024/02/28 04:54:20;;;;;;;36.53;14.20;;;;;;;7.10;93.69;100294.94;5053112;28;20084;-39
2024/02/28 04:56:46;;;;;;;28.33;11.05;;;;;;;6.58;89.40;100302.22;5052875;28;20025;-39
2024/02/28 04:59:15;;;;;;;28.88;10.63;;;;;;;6.53;89.28;100303.69;5052296;28;20027;-39
2024/02/28 05:01:42;;;;;;;29.10;11.47;;;;;;;6.62;87.83;100298.25;5053256;28;20032;-40
2024/02/28 05:04:07;;;;;;;26.17;11.13;;;;;;;6.71;87.35;100300.91;5053276;28;20627;-38
2024/02/28 05:06:33;;;;;;;28.35;12.45;;;;;;;6.77;87.04;100300.25;5053781;28;20064;-41
2024/02/28 05:08:58;;;;;;;42.40;13.68;;;;;;;6.70;86.99;100299.25;5053609;28;20063;-39
2024/02/28 05:11:24;;;;;;;34.38;13.02;;;;;;;6.56;87.87;100293.63;5053645;28;20025;-37
2024/02/28 05:13:49;;;;;;;33.55;13.45;;;;;;;6.46;87.74;100299.06;5053249;28;20043;-38
2024/02/28 05:16:15;;;;;;;29.05;13.35;;;;;;;6.51;89.22;100284.53;5053525;28;20029;-40
2024/02/28 05:18:42;;;;;;;28.67;12.63;;;;;;;6.70;87.14;100294.81;5053617;28;20025;-40
2024/02/28 05:21:07;;;;;;;35.72;14.52;;;;;;;6.54;87.77;100308.81;5053132;28;20472;-39
2024/02/28 05:23:32;;;;;;;28.15;12.23;;;;;;;6.43;87.47;100312.59;5051905;28;20492;-40
2024/02/28 05:26:03;;;;;;;28.70;12.55;;;;;;;6.39;87.97;100319.19;5052997;28;20122;-43
2024/02/28 05:28:29;;;;;;;35.50;13.35;;;;;;;6.29;87.83;100315.88;5052852;28;20021;-43
2024/02/28 05:30:54;;;;;;;34.05;16.88;;;;;;;6.24;88.39;100326.09;5052596;28;20453;-43
2024/02/28 05:33:20;;;;;;;30.60;14.68;;;;;;;6.33;89.04;100330.44;5051235;28;20116;-43
2024/02/28 05:35:45;;;;;;;34.92;14.93;;;;;;;6.48;87.83;100330.63;5051762;28;20507;-40
2024/02/28 05:38:10;;;;;;;34.90;14.80;;;;;;;6.34;89.20;100331.25;5051785;28;20121;-44
2024/02/28 05:40:36;;;;;;;26.63;13.75;;;;;;;6.28;88.84;100337.19;5051615;28;20385;-39
2024/02/28 05:43:02;;;;;;;33.92;13.60;;;;;;;6.25;88.96;100339.16;5051620;28;20017;-40
2024/02/28 05:45:27;;;;;;;34.50;14.02;;;;;;;6.82;99.50;100346.38;5051913;28;20055;-38
2024/02/28 05:47:52;;;;;;;31.02;15.10;;;;;;;7.60;91.70;100345.00;5052019;28;20048;-40
2024/02/28 05:50:18;;;;;;;35.88;16.20;;;;;;;8.19;85.52;100338.50;5052853;28;20100;-42
2024/02/28 05:52:43;;;;;;;28.27;13.48;;;;;;;8.50;80.74;100335.84;5041589;28;20060;-42
2024/02/28 05:55:08;;;;;;;27.55;13.85;;;;;;;8.47;79.35;100349.47;5032734;28;20018;-41
2024/02/28 05:57:34;;;;;;;33.30;14.75;;;;;;;8.68;77.77;100348.00;5049416;28;20029;-41
2024/02/28 05:59:59;;;;;;;31.80;14.25;;;;;;;8.77;76.78;100350.44;5039229;28;20024;-40
2024/02/28 06:02:25;;;;;;;34.88;14.80;;;;;;;8.91;75.14;100355.97;5033120;28;20013;-41
2024/02/28 06:04:50;;;;;;;32.72;14.77;;;;;;;8.97;75.58;100364.06;5042357;28;20017;-41
2024/02/28 06:07:15;;;;;;;32.55;14.63;;;;;;;9.03;74.98;100356.41;5051868;28;20028;-41
2024/02/28 06:09:41;;;;;;;33.50;15.40;;;;;;;9.15;74.43;100355.78;5051944;28;20440;-39
2024/02/28 06:12:06;;;;;;;33.25;16.38;;;;;;;9.36;74.25;100367.56;5050113;28;20453;-38
2024/02/28 06:14:32;;;;;;;35.13;16.52;;;;;;;9.44;73.78;100364.00;5043205;28;20056;-41
2024/02/28 06:16:57;;;;;;;35.40;16.85;;;;;;;9.32;73.93;100367.09;5038643;28;20056;-44
2024/02/28 06:19:22;;;;;;;34.70;15.73;;;;;;;9.51;73.30;100368.41;5036440;28;20703;-40
2024/02/28 06:21:48;;;;;;;33.63;15.52;;;;;;;9.51;71.83;100362.28;5046503;28;20032;-41
2024/02/28 06:24:13;;;;;;;35.13;16.00;;;;;;;9.85;71.59;100366.25;5036192;28;20657;-40
2024/02/28 06:26:39;;;;;;;33.88;15.45;;;;;;;9.92;71.75;100364.50;5050217;28;20053;-40
2024/02/28 06:29:06;;;;;;;35.95;16.10;;;;;;;9.57;72.20;100375.66;5051320;28;20094;-42
2024/02/28 06:31:32;;;;;;;34.85;16.00;;;;;;;9.37;74.45;100379.84;5051777;28;20028;-41
2024/02/28 06:33:57;;;;;;;35.45;17.42;;;;;;;9.62;73.69;100376.97;5051298;28;20532;-41
2024/02/28 06:36:23;;;;;;;35.35;16.23;;;;;;;9.59;73.28;100378.13;5050987;28;20140;-43
2024/02/28 06:38:48;;;;;;;35.58;15.15;;;;;;;9.72;74.08;100373.00;5050796;28;20029;-42
2024/02/28 06:41:13;;;;;;;49.90;18.00;;;;;;;10.15;72.73;100383.00;5044517;28;20028;-40
2024/02/28 06:43:39;;;;;;;32.38;13.38;;;;;;;10.32;72.21;100383.66;5039451;28;20026;-40
2024/02/28 06:46:04;;;;;;;41.53;14.52;;;;;;;10.54;71.86;100387.19;5049217;28;20031;-40
2024/02/28 06:48:30;;;;;;;37.42;13.98;;;;;;;10.75;71.09;100379.22;5049366;28;20033;-44
2024/02/28 06:50:57;;;;;;;37.17;14.13;;;;;;;11.17;68.52;100392.72;5044565;28;20037;-28
2024/02/28 06:53:23;;;;;;;35.72;12.90;;;;;;;11.24;69.54;100392.78;5045112;28;20071;-27
2024/02/28 06:55:48;;;;;;;31.00;12.05;;;;;;;11.65;67.01;100400.06;5048251;28;20052;-28
2024/02/28 06:58:14;;;;;;;31.60;12.13;;;;;;;11.71;66.79;100400.13;5051234;28;20028;-28
2024/02/28 07:00:39;;;;;;;30.63;12.05;;;;;;;11.27;66.95;100390.56;5051551;28;20021;-28
2024/02/28 07:03:05;;;;;;;27.48;11.63;;;;;;;11.70;66.52;100395.81;5051700;28;20064;-27
2024/02/28 07:05:30;;;;;;;30.30;12.48;;;;;;;11.97;65.48;100395.19;5045766;28;20084;-28
2024/02/28 07:07:55;;;;;;;27.95;12.00;;;;;;;12.09;64.99;100399.78;5042695;28;20446;-27
2024/02/28 07:10:21;;;;;;;32.70;13.35;;;;;;;11.95;64.43;100395.38;5046022;28;20075;-29
2024/02/28 07:12:46;;;;;;;31.65;13.20;;;;;;;11.97;64.51;100403.19;5047309;28;20028;-29
2024/02/28 07:15:12;;;;;;;28.08;12.38;;;;;;;12.01;69.61;100412.44;5044366;28;20021;-27
2024/02/28 07:17:37;;;;;;;28.42;12.32;;;;;;;11.93;66.26;100405.41;5034472;28;20022;-31
2024/02/28 07:20:02;;;;;;;23.60;11.00;;;;;;;12.11;64.34;100407.59;5030026;28;20245;-29
2024/02/28 07:22:28;;;;;;;32.10;11.90;;;;;;;12.24;64.12;100407.66;5030096;28;20040;-28
2024/02/28 07:24:53;;;;;;;32.00;11.00;;;;;;;12.29;63.69;100407.03;5029557;28;20053;-28
2024/02/28 07:27:18;;;;;;;23.45;10.15;;;;;;;12.81;62.11;100402.94;5031343;28;20112;-29
2024/02/28 07:29:44;;;;;;;33.58;10.73;;;;;;;13.03;60.54;100408.09;5030992;28;20056;-27
2024/02/28 07:32:09;;;;;;;33.30;10.85;;;;;;;13.09;60.37;100407.28;5029779;28;20025;-29
2024/02/28 07:34:35;;;;;;;29.83;10.60;;;;;;;13.30;60.40;100420.47;5029754;28;20040;-28
2024/02/28 07:37:00;;;;;;;24.25;9.70;;;;;;;13.87;58.22;100420.03;5029240;28;20374;-26
2024/02/28 07:39:27;;;;;;;26.95;10.55;;;;;;;13.55;58.34;100414.50;5029597;28;20029;-28
2024/02/28 07:41:52;;;;;;;30.90;11.18;;;;;;;13.69;58.69;100415.34;5029302;28;20037;-27
2024/02/28 07:44:18;;;;;;;25.40;10.50;;;;;;;14.20;58.63;100406.59;5029244;28;20030;-28
2024/02/28 07:46:44;;;;;;;27.75;10.25;;;;;;;14.86;55.39;100412.69;5030574;28;20056;-28
2024/02/28 07:49:10;;;;;;;24.50;10.10;;;;;;;15.31;54.21;100412.59;5034798;28;20405;-27
2024/02/28 07:51:36;;;;;;;29.38;10.63;;;;;;;15.61;54.19;100410.09;5035113;28;20029;-28
2024/02/28 07:54:02;;;;;;;21.48;10.13;;;;;;;15.99;51.91;100405.59;5034695;28;20021;-27
2024/02/28 07:56:29;;;;;;;23.13;9.73;;;;;;;16.57;51.54;100401.63;5034710;28;20037;-27
2024/02/28 07:58:54;;;;;;;28.25;10.32;;;;;;;16.33;51.53;100393.44;5034618;28;20029;-27
2024/02/28 08:01:22;;;;;;;24.10;10.13;;;;;;;16.61;50.83;100387.50;5034477;28;20451;-28
2024/02/28 08:03:47;;;;;;;21.65;9.93;;;;;;;16.97;49.85;100401.09;5034206;28;20021;-28
2024/02/28 08:06:13;;;;;;;25.23;10.43;;;;;;;17.22;49.06;100402.78;5034721;28;20409;-27
2024/02/28 08:08:38;;;;;;;28.75;11.38;;;;;;;17.44;48.90;100395.81;5034502;28;20469;-28
2024/02/28 08:11:03;;;;;;;28.02;10.88;;;;;;;17.36;48.16;100404.19;5034493;28;20104;-28
2024/02/28 08:13:29;;;;;;;22.92;10.32;;;;;;;17.65;48.54;100399.78;5034072;28;20032;-30
2024/02/28 08:15:55;;;;;;;26.98;10.98;;;;;;;17.79;47.94;100398.47;5034182;28;20407;-28
2024/02/28 08:18:21;;;;;;;25.55;10.77;;;;;;;18.22;46.57;100393.78;5034053;28;20029;-27
2024/02/28 08:20:46;;;;;;;30.08;12.82;;;;;;;18.46;45.21;100396.38;5034145;28;20025;-27
2024/02/28 08:23:11;;;;;;;29.15;12.90;;;;;;;18.34;45.09;100389.16;5034225;28;20037;-28
2024/02/28 08:25:37;;;;;;;24.45;12.65;;;;;;;18.49;45.32;100394.03;5033971;28;20053;-28
2024/02/28 08:28:03;;;;;;;28.40;13.38;;;;;;;18.31;45.72;100394.19;5033897;28;20037;-27
2024/02/28 08:30:29;;;;;;;27.80;13.05;;;;;;;18.17;46.47;100388.28;5033952;28;20091;-28
2024/02/28 08:32:54;;;;;;;32.67;14.27;;;;;;;18.28;45.37;100383.91;5033903;28;20029;-28
2024/02/28 08:35:19;;;;;;;27.40;13.73;;;;;;;18.12;47.44;100388.16;5033751;28;20033;-27
2024/02/28 08:37:45;;;;;;;29.02;15.15;;;;;;;18.32;46.33;100390.47;5033740;28;20029;-28
2024/02/28 08:40:11;;;;;;;33.65;14.98;;;;;;;18.44;45.90;100387.72;5033743;28;20037;-29
2024/02/28 08:42:37;;;;;;;35.70;15.82;;;;;;;18.06;46.36;100391.81;5033339;28;20029;-30
2024/02/28 08:45:03;;;;;;;28.42;14.77;;;;;;;18.57;45.99;100392.84;5033335;28;20018;-29
2024/02/28 08:47:29;;;;;;;31.52;14.45;;;;;;;19.23;45.78;100392.38;5033877;28;20035;-28
2024/02/28 08:49:55;;;;;;;29.35;14.35;;;;;;;19.40;43.97;100395.94;5033864;28;20025;-30
2024/02/28 08:52:21;;;;;;;31.88;15.80;;;;;;;18.70;45.96;100397.13;5033763;28;20510;-28
2024/02/28 08:54:47;;;;;;;30.52;16.65;;;;;;;18.80;44.60;100396.50;5033510;28;20025;-28
2024/02/28 08:57:13;;;;;;;32.75;16.75;;;;;;;18.51;46.24;100383.03;5033772;28;20029;-30
2024/02/28 08:59:39;;;;;;;33.05;16.17;;;;;;;19.00;45.56;100385.25;5033547;28;20555;-27
2024/02/28 09:02:05;;;;;;;32.97;15.85;;;;;;;18.99;44.58;100387.16;5033338;28;20025;-28
2024/02/28 09:04:31;;;;;;;34.53;15.65;;;;;;;19.38;44.79;100384.56;5033255;28;20024;-29
2024/02/28 09:06:56;;;;;;;33.17;16.27;;;;;;;19.38;45.48;100389.13;5033633;28;20382;-28
2024/02/28 09:09:21;;;;;;;31.67;16.23;;;;;;;19.52;45.08;100388.53;5033439;28;20092;-28
2024/02/28 09:11:47;;;;;;;35.38;17.48;;;;;;;19.63;44.06;100388.69;5033146;28;20101;-27
2024/02/28 09:14:12;;;;;;;36.47;18.08;;;;;;;19.07;45.87;100377.84;5032796;28;20112;-29
2024/02/28 09:16:38;;;;;;;39.40;18.00;;;;;;;19.21;45.59;100378.31;5033096;28;20021;-28
2024/02/28 09:19:04;;;;;;;34.10;17.27;;;;;;;19.36;45.21;100372.34;5032839;28;20449;-31
2024/02/28 09:21:29;;;;;;;28.73;15.98;;;;;;;18.99;45.82;100368.28;5033369;28;20017;-28
2024/02/28 09:23:55;;;;;;;31.08;16.77;;;;;;;18.91;45.79;100371.38;5050489;28;20029;-28
2024/02/28 09:26:20;;;;;;;41.80;24.23;;;;;;;18.80;45.74;100378.47;5052386;28;20057;-27
2024/02/28 09:28:45;;;;;;;37.05;17.25;;;;;;;18.85;45.36;100375.03;5051764;28;20053;-28
2024/02/28 09:31:11;;;;;;;39.47;15.50;;;;;;;18.89;46.08;100366.22;5051713;28;20021;-28
2024/02/28 09:33:37;;;;;;;28.70;15.30;;;;;;;19.11;45.05;100363.63;5052000;28;20097;-27
2024/02/28 09:36:03;;;;;;;33.65;17.25;;;;;;;19.49;45.26;100364.72;5051914;28;20524;-30
2024/02/28 09:38:29;;;;;;;32.75;16.60;;;;;;;19.58;44.11;100365.13;5052073;28;20071;-27
2024/02/28 09:40:55;;;;;;;28.65;13.77;;;;;;;19.16;45.45;100352.09;5051594;28;20033;-29
2024/02/28 09:43:27;;;;;;;24.33;13.48;;;;;;;19.53;45.00;100357.81;5051838;28;20027;-28
2024/02/28 09:45:57;;;;;;;26.48;13.40;;;;;;;19.61;43.16;100343.06;5051535;28;20025;-27
2024/02/28 09:48:23;;;;;;;24.27;13.63;;;;;;;19.50;43.82;100357.47;5051600;28;20021;-28
2024/02/28 09:50:49;;;;;;;26.88;13.55;;;;;;;19.08;44.97;100347.13;5051861;28;20113;-30
2024/02/28 09:53:14;;;;;;;26.70;13.75;;;;;;;19.18;45.60;100343.75;5051326;28;20106;-28
2024/02/28 09:55:40;;;;;;;27.95;14.15;;;;;;;19.37;44.65;100341.63;5051023;28;20128;-27
2024/02/28 09:58:07;;;;;;;29.58;13.82;;;;;;;18.78;45.56;100337.41;5051249;28;20119;-29
2024/02/28 10:00:34;;;;;;;28.23;12.93;;;;;;;18.62;46.13;100324.72;5051059;28;20031;-29
2024/02/28 10:03:00;;;;;;;28.05;12.93;;;;;;;18.51;47.34;100329.13;5050985;28;20035;-28
2024/02/28 10:05:28;;;;;;;20.30;12.25;;;;;;;19.12;46.02;100323.97;5051128;28;20025;-28
2024/02/28 10:07:54;;;;;;;28.38;12.63;;;;;;;19.50;45.42;100323.19;5051073;28;20172;-29
2024/02/28 10:10:20;;;;;;;28.08;13.50;;;;;;;18.96;46.32;100320.19;5050641;28;20036;-29
2024/02/28 10:12:45;;;;;;;21.65;11.60;;;;;;;19.70;44.68;100316.44;5050975;28;20033;-28
2024/02/28 10:15:11;;;;;;;23.60;12.68;;;;;;;19.61;44.34;100326.88;5051039;28;20024;-29
2024/02/28 10:17:37;;;;;;;24.13;12.10;;;;;;;18.09;47.69;100310.56;5050816;28;20052;-31
2024/02/28 10:20:04;;;;;;;20.70;11.38;;;;;;;19.19;45.42;100313.00;5051136;28;20025;-31
2024/02/28 10:22:34;;;;;;;23.20;11.48;;;;;;;19.39;45.79;100310.63;5050812;28;20025;-30
2024/02/28 10:25:00;;;;;;;23.27;11.70;;;;;;;19.54;44.79;100307.31;5050409;28;20171;-28
2024/02/28 10:27:26;;;;;;;21.67;10.90;;;;;;;18.94;46.74;100300.75;5050703;28;20511;-29
2024/02/28 10:29:51;;;;;;;21.33;11.50;;;;;;;18.66;47.12;100290.84;5050905;28;20082;-28
2024/02/28 10:32:16;;;;;;;22.13;10.98;;;;;;;18.74;46.55;100293.94;5050720;28;20021;-28
2024/02/28 10:34:43;;;;;;;20.13;11.35;;;;;;;19.25;46.78;100296.66;5051009;28;20025;-31
2024/02/28 10:37:09;;;;;;;23.50;11.43;;;;;;;19.91;44.23;100294.06;5051457;28;20021;-29
2024/02/28 10:39:35;;;;;;;23.88;11.10;;;;;;;19.42;44.74;100291.25;5051911;28;20134;-29
2024/02/28 10:42:03;;;;;;;24.65;11.52;;;;;;;19.19;45.06;100283.34;5051364;28;20040;-31
2024/02/28 10:44:30;;;;;;;19.27;11.02;;;;;;;19.12;45.26;100280.81;5051339;28;20020;-29
2024/02/28 10:46:56;;;;;;;26.80;11.18;;;;;;;18.91;45.55;100277.00;5051615;28;20029;-28
2024/02/28 10:49:21;;;;;;;18.27;10.80;;;;;;;18.82;46.21;100275.75;5051308;28;20495;-28
2024/02/28 10:51:49;;;;;;;21.00;10.88;;;;;;;18.46;47.22;100264.34;5051587;28;20033;-30
2024/02/28 10:54:15;;;;;;;18.45;10.30;;;;;;;19.12;46.08;100254.66;5051449;28;20041;-28
2024/02/28 10:56:42;;;;;;;20.27;11.88;;;;;;;19.92;44.38;100249.78;5051254;28;20029;-28
2024/02/28 10:59:10;;;;;;;22.42;11.23;;;;;;;20.05;43.66;100253.16;5050871;28;20155;-29
2024/02/28 11:01:44;;;;;;;21.23;10.95;;;;;;;19.83;44.06;100253.19;5050905;28;20481;-28
2024/02/28 11:04:11;;;;;;;24.35;11.10;;;;;;;19.66;44.84;100247.81;5051015;28;20028;-28
2024/02/28 11:06:48;;;;;;;21.33;10.02;;;;;;;19.92;43.95;100241.66;5051184;28;20025;-29
2024/02/28 11:09:19;;;;;;;24.17;10.60;;;;;;;20.22;42.99;100243.06;5050726;28;20443;-28